Time;durP1;ratioP1;P1;durP2;ratioP2;P2;SDS_P1;SDS_P2;PMS_P1;PMS_P2;Temp;Humidity;BMP_temperature;BMP_pressure;BME280_temperature;BME280_humidity;BME280_pressure;Samples;Min_cycle;Max_cycle;Signal;HPM_P1;HPM_P2
2021/07/23 00:02:24;;;;;;;;;;;16.40;99.90;;;;;;5059069;28;20353;-71
2021/07/23 00:04:49;;;;;;;;;;;16.50;99.90;;;;;;5053469;28;19940;-71
2021/07/23 00:07:15;;;;;;;;;;;16.40;99.90;;;;;;5053608;28;19947;-72
2021/07/23 00:09:41;;;;;;;;;;;16.40;99.90;;;;;;5071996;28;20023;-71
2021/07/23 00:12:06;;;;;;;;;;;16.30;99.90;;;;;;5065256;28;19913;-71
2021/07/23 00:14:32;;;;;;;;;;;16.30;99.90;;;;;;5070367;28;19927;-71
2021/07/23 00:16:57;;;;;;;;;;;16.20;99.90;;;;;;5072188;28;19913;-71
2021/07/23 00:19:23;;;;;;;;;;;16.30;99.90;;;;;;5071834;28;19957;-72
2021/07/23 00:21:48;;;;;;;;;;;16.20;99.90;;;;;;5072325;28;19916;-71
2021/07/23 00:24:14;;;;;;;;;;;16.20;99.90;;;;;;5071613;28;20311;-72
2021/07/23 00:26:39;;;;;;;;;;;16.30;99.90;;;;;;5071727;28;20368;-71
2021/07/23 00:29:05;;;;;;;;;;;16.30;99.90;;;;;;5058475;28;19959;-71
2021/07/23 00:31:30;;;;;;;;;;;16.20;99.90;;;;;;5058659;28;19926;-71
2021/07/23 00:33:56;;;;;;;;;;;16.20;99.90;;;;;;5054022;28;19912;-72
2021/07/23 00:36:21;;;;;;;;;;;16.20;99.90;;;;;;5057775;28;20304;-71
2021/07/23 00:38:47;;;;;;;;;;;16.20;99.90;;;;;;5075080;28;19913;-71
2021/07/23 00:41:12;;;;;;;;;;;16.20;99.90;;;;;;5071407;28;19948;-71
2021/07/23 00:43:38;;;;;;;;;;;16.20;99.90;;;;;;5066209;28;19913;-71
2021/07/23 00:46:04;;;;;;;;;;;16.10;99.90;;;;;;5072538;28;20356;-71
2021/07/23 00:48:29;;;;;;;;;;;16.10;99.90;;;;;;5059059;28;19919;-71
2021/07/23 00:50:55;;;;;;;;;;;16.00;99.90;;;;;;5061062;28;19917;-71
2021/07/23 00:53:20;;;;;;;;;;;16.00;99.90;;;;;;5078650;28;19916;-71
2021/07/23 00:55:56;;;;;;;;;;;15.90;99.90;;;;;;5077584;28;19913;-72
2021/07/23 00:58:23;;;;;;;;;;;15.90;99.90;;;;;;5070967;28;20010;-71
2021/07/23 01:00:49;;;;;;;;;;;15.90;99.90;;;;;;5075922;28;19912;-71
2021/07/23 01:03:15;;;;;;;;;;;15.80;99.90;;;;;;5078868;28;19940;-71
2021/07/23 01:05:41;;;;;;;;;;;15.90;99.90;;;;;;5078155;28;19916;-71
2021/07/23 01:08:06;;;;;;;;;;;15.80;99.90;;;;;;5073019;28;19936;-71
2021/07/23 01:10:36;;;;;;;;;;;15.80;99.90;;;;;;5058586;28;19916;-71
2021/07/23 01:13:01;;;;;;;;;;;15.90;99.90;;;;;;5073634;28;19917;-71
2021/07/23 01:15:27;;;;;;;;;;;15.90;99.90;;;;;;5078712;28;19954;-71
2021/07/23 01:17:52;;;;;;;;;;;15.80;99.90;;;;;;5064620;28;20386;-71
2021/07/23 01:20:23;;;;;;;;;;;15.80;99.90;;;;;;5055911;28;19919;-71
2021/07/23 01:22:49;;;;;;;;;;;15.70;99.90;;;;;;5068315;28;19913;-71
2021/07/23 01:25:15;;;;;;;;;;;15.70;99.90;;;;;;5076662;28;19913;-70
2021/07/23 01:27:47;;;;;;;;;;;15.70;99.90;;;;;;5073248;28;20025;-71
2021/07/23 01:30:14;;;;;;;;;;;15.60;99.90;;;;;;5056424;28;20395;-71
2021/07/23 01:32:40;;;;;;;;;;;15.60;99.90;;;;;;5065791;28;19919;-71
2021/07/23 01:35:06;;;;;;;;;;;15.60;99.90;;;;;;5075112;28;19912;-71
2021/07/23 01:37:33;;;;;;;;;;;15.70;99.90;;;;;;5074576;28;19912;-71
2021/07/23 01:39:59;;;;;;;;;;;15.60;99.90;;;;;;5075410;28;19912;-70
2021/07/23 01:42:26;;;;;;;;;;;15.70;99.90;;;;;;5070724;28;20331;-70
2021/07/23 01:44:51;;;;;;;;;;;15.70;99.90;;;;;;5076613;28;19916;-71
2021/07/23 01:47:17;;;;;;;;;;;15.60;99.90;;;;;;5073113;28;19916;-71
2021/07/23 01:49:42;;;;;;;;;;;15.60;99.90;;;;;;5067080;28;19920;-70
2021/07/23 01:52:08;;;;;;;;;;;15.60;99.90;;;;;;5070094;28;19913;-70
2021/07/23 01:54:33;;;;;;;;;;;15.60;99.90;;;;;;5055898;28;19958;-71
2021/07/23 01:56:59;;;;;;;;;;;15.70;99.90;;;;;;5056190;28;20007;-70
2021/07/23 01:59:24;;;;;;;;;;;15.60;99.90;;;;;;5067295;28;20063;-70
2021/07/23 02:01:50;;;;;;;;;;;15.60;99.90;;;;;;5059821;28;19958;-72
2021/07/23 02:04:15;;;;;;;;;;;15.60;99.90;;;;;;5075879;28;19913;-71
2021/07/23 02:06:40;;;;;;;;;;;15.60;99.90;;;;;;5059073;28;20293;-71
2021/07/23 02:09:06;;;;;;;;;;;15.60;99.90;;;;;;5074614;28;19979;-71
2021/07/23 02:11:31;;;;;;;;;;;15.50;99.90;;;;;;5073420;28;20011;-70
2021/07/23 02:13:58;;;;;;;;;;;15.60;99.90;;;;;;5083627;28;20281;-70
2021/07/23 02:16:24;;;;;;;;;;;15.50;99.90;;;;;;5055849;28;19913;-71
2021/07/23 02:18:50;;;;;;;;;;;15.50;99.90;;;;;;5057511;28;19958;-71
2021/07/23 02:21:15;;;;;;;;;;;15.50;99.90;;;;;;5074174;28;19939;-71
2021/07/23 02:23:41;;;;;;;;;;;15.50;99.90;;;;;;5073941;28;19970;-71
2021/07/23 02:26:19;;;;;;;;;;;15.60;99.90;;;;;;5075168;28;19913;-71
2021/07/23 02:28:45;;;;;;;;;;;15.70;99.90;;;;;;5059558;28;20277;-70
2021/07/23 02:31:10;;;;;;;;;;;15.70;99.90;;;;;;5074368;28;19916;-71
2021/07/23 02:33:36;;;;;;;;;;;15.80;99.90;;;;;;5056260;28;20357;-70
2021/07/23 02:36:01;;;;;;;;;;;15.80;99.90;;;;;;5065371;28;19958;-71
2021/07/23 02:38:27;;;;;;;;;;;15.70;99.90;;;;;;5075137;28;19913;-71
2021/07/23 02:40:54;;;;;;;;;;;15.80;99.90;;;;;;5064926;28;19913;-71
2021/07/23 02:43:20;;;;;;;;;;;15.80;99.90;;;;;;5070749;28;19944;-70
2021/07/23 02:45:46;;;;;;;;;;;15.90;99.90;;;;;;5074177;28;19927;-71
2021/07/23 02:48:11;;;;;;;;;;;16.00;99.90;;;;;;5073438;28;20007;-71
2021/07/23 02:50:37;;;;;;;;;;;16.00;99.90;;;;;;5074848;28;19916;-71
2021/07/23 02:53:03;;;;;;;;;;;16.00;99.90;;;;;;5060314;28;20281;-70
2021/07/23 02:55:28;;;;;;;;;;;16.00;99.90;;;;;;5074823;28;19919;-71
2021/07/23 02:57:54;;;;;;;;;;;16.00;99.90;;;;;;5073966;28;19913;-70
2021/07/23 03:00:19;;;;;;;;;;;16.00;99.90;;;;;;5074345;28;19912;-70
2021/07/23 03:02:45;;;;;;;;;;;16.00;99.90;;;;;;5071133;28;19913;-71
2021/07/23 03:05:11;;;;;;;;;;;16.10;99.90;;;;;;5072664;28;19916;-70
2021/07/23 03:07:36;;;;;;;;;;;16.10;99.90;;;;;;5058950;28;19948;-71
2021/07/23 03:10:02;;;;;;;;;;;16.20;99.90;;;;;;5053122;28;20356;-71
2021/07/23 03:12:27;;;;;;;;;;;16.20;99.90;;;;;;5058925;28;19944;-71
2021/07/23 03:14:53;;;;;;;;;;;16.10;99.90;;;;;;5086073;28;19921;-70
2021/07/23 03:17:18;;;;;;;;;;;16.20;99.90;;;;;;5071454;28;19920;-71
2021/07/23 03:19:44;;;;;;;;;;;16.20;99.90;;;;;;5072310;28;19935;-71
2021/07/23 03:22:09;;;;;;;;;;;16.20;99.90;;;;;;5066657;28;19958;-71
2021/07/23 03:24:35;;;;;;;;;;;16.30;99.90;;;;;;5069820;28;20398;-71
2021/07/23 03:27:00;;;;;;;;;;;16.30;99.90;;;;;;5073331;28;19923;-71
2021/07/23 03:29:26;;;;;;;;;;;16.30;99.90;;;;;;5056056;28;19917;-71
2021/07/23 03:31:51;;;;;;;;;;;16.30;99.90;;;;;;5064444;28;19912;-71
2021/07/23 03:34:17;;;;;;;;;;;16.40;99.90;;;;;;5066989;28;19919;-70
2021/07/23 03:36:42;;;;;;;;;;;16.40;99.90;;;;;;5060690;28;19999;-71
2021/07/23 03:39:08;;;;;;;;;;;16.40;99.90;;;;;;5054334;28;20361;-71
2021/07/23 03:41:33;;;;;;;;;;;16.50;99.90;;;;;;5052687;28;19913;-70
2021/07/23 03:43:59;;;;;;;;;;;16.40;99.90;;;;;;5062215;28;19912;-70
2021/07/23 03:46:24;;;;;;;;;;;16.40;99.90;;;;;;5073201;28;19912;-70
2021/07/23 03:48:53;;;;;;;;;;;16.40;99.90;;;;;;5073155;28;20524;-71
2021/07/23 03:51:19;;;;;;;;;;;16.50;99.90;;;;;;5073716;28;19999;-71
2021/07/23 03:53:44;;;;;;;;;;;16.50;99.90;;;;;;5073282;28;20342;-71
2021/07/23 03:56:10;;;;;;;;;;;16.50;99.90;;;;;;5072214;28;19939;-71
2021/07/23 03:58:36;;;;;;;;;;;16.50;99.90;;;;;;5073144;28;19938;-72
2021/07/23 04:01:05;;;;;;;;;;;16.50;99.90;;;;;;5071746;28;19936;-71
2021/07/23 04:03:31;;;;;;;;;;;16.60;99.90;;;;;;5068309;28;19917;-71
2021/07/23 04:05:57;;;;;;;;;;;16.60;99.90;;;;;;5053878;28;19913;-71
2021/07/23 04:08:22;;;;;;;;;;;16.70;99.90;;;;;;5053870;28;19935;-71
2021/07/23 04:10:48;;;;;;;;;;;16.80;99.90;;;;;;5060911;28;20319;-71
2021/07/23 04:13:13;;;;;;;;;;;16.80;99.90;;;;;;5076937;28;19917;-71
2021/07/23 04:15:39;;;;;;;;;;;16.70;99.90;;;;;;5080305;28;19948;-71
2021/07/23 04:18:04;;;;;;;;;;;16.70;99.90;;;;;;5079531;28;19974;-71
2021/07/23 04:20:30;;;;;;;;;;;16.70;99.90;;;;;;5079610;28;19916;-71
2021/07/23 04:22:56;;;;;;;;;;;16.70;99.90;;;;;;5079838;28;19919;-72
2021/07/23 04:25:21;;;;;;;;;;;16.70;99.90;;;;;;5063073;28;19912;-71
2021/07/23 04:27:47;;;;;;;;;;;16.80;99.90;;;;;;5063666;28;20013;-71
2021/07/23 04:30:13;;;;;;;;;;;16.80;99.90;;;;;;5077101;28;19916;-71
2021/07/23 04:32:39;;;;;;;;;;;16.80;99.90;;;;;;5080170;28;19957;-71
2021/07/23 04:35:04;;;;;;;;;;;16.90;99.90;;;;;;5077681;28;19912;-71
2021/07/23 04:37:30;;;;;;;;;;;16.90;99.90;;;;;;5080060;28;20058;-71
2021/07/23 04:39:55;;;;;;;;;;;16.90;99.90;;;;;;5074006;28;19913;-71
2021/07/23 04:42:21;;;;;;;;;;;16.90;99.90;;;;;;5077851;28;19912;-71
2021/07/23 04:44:46;;;;;;;;;;;17.00;99.90;;;;;;5078255;28;19912;-71
2021/07/23 04:47:12;;;;;;;;;;;17.00;99.90;;;;;;5079993;28;19913;-71
2021/07/23 04:49:37;;;;;;;;;;;17.00;99.90;;;;;;5068700;28;19920;-71
2021/07/23 04:52:03;;;;;;;;;;;17.00;99.90;;;;;;5079504;28;20303;-71
2021/07/23 04:54:29;;;;;;;;;;;17.10;99.90;;;;;;5063599;28;19913;-71
2021/07/23 04:56:54;;;;;;;;;;;17.10;99.90;;;;;;5059910;28;19917;-71
2021/07/23 04:59:20;;;;;;;;;;;17.10;99.90;;;;;;5067180;28;19916;-72
2021/07/23 05:01:45;;;;;;;;;;;17.20;99.90;;;;;;5079889;28;20426;-71
2021/07/23 05:04:12;;;;;;;;;;;17.20;99.90;;;;;;5078486;28;19919;-70
2021/07/23 05:06:40;;;;;;;;;;;17.20;99.90;;;;;;5079865;28;19966;-70
2021/07/23 05:09:06;;;;;;;;;;;17.20;99.90;;;;;;5077542;28;19966;-71
2021/07/23 05:11:32;;;;;;;;;;;17.30;99.90;;;;;;5076514;28;19920;-71
2021/07/23 05:13:59;;;;;;;;;;;17.30;99.90;;;;;;5076704;28;19921;-70
2021/07/23 05:16:24;;;;;;;;;;;17.30;99.90;;;;;;5078542;28;19916;-71
2021/07/23 05:18:50;;;;;;;;;;;17.30;99.90;;;;;;5067363;28;20349;-71
2021/07/23 05:21:16;;;;;;;;;;;17.20;99.90;;;;;;5078556;28;20284;-71
2021/07/23 05:23:42;;;;;;;;;;;17.20;99.90;;;;;;5076675;28;20009;-70
2021/07/23 05:26:08;;;;;;;;;;;17.10;99.90;;;;;;5076437;28;20361;-71
2021/07/23 05:28:34;;;;;;;;;;;17.10;99.90;;;;;;5067269;28;20011;-71
2021/07/23 05:31:02;;;;;;;;;;;17.20;99.90;;;;;;5071715;28;20011;-71
2021/07/23 05:33:27;;;;;;;;;;;17.30;99.90;;;;;;5075635;28;20361;-71
2021/07/23 05:35:53;;;;;;;;;;;17.30;99.90;;;;;;5076268;28;19919;-72
2021/07/23 05:38:18;;;;;;;;;;;17.30;99.90;;;;;;5075000;28;20315;-71
2021/07/23 05:40:44;;;;;;;;;;;17.30;99.90;;;;;;5069548;28;19920;-71
2021/07/23 05:43:10;;;;;;;;;;;17.30;99.90;;;;;;5066166;28;20004;-71
2021/07/23 05:45:41;;;;;;;;;;;17.30;99.90;;;;;;5075812;28;20440;-71
2021/07/23 05:48:07;;;;;;;;;;;17.40;99.90;;;;;;5059240;28;19948;-71
2021/07/23 05:50:33;;;;;;;;;;;17.40;99.90;;;;;;5080579;28;19960;-71
2021/07/23 05:52:58;;;;;;;;;;;17.40;99.90;;;;;;5067490;28;20365;-71
2021/07/23 05:55:24;;;;;;;;;;;17.40;99.90;;;;;;5075969;28;19944;-71
2021/07/23 05:57:49;;;;;;;;;;;17.40;99.90;;;;;;5075519;28;19991;-71
2021/07/23 06:00:15;;;;;;;;;;;17.40;99.90;;;;;;5075606;28;19922;-71
2021/07/23 06:02:41;;;;;;;;;;;17.50;99.90;;;;;;5075092;28;19975;-71
2021/07/23 06:05:06;;;;;;;;;;;17.60;99.90;;;;;;5075385;28;20024;-71
2021/07/23 06:07:32;;;;;;;;;;;17.60;99.90;;;;;;5075163;28;19920;-71
2021/07/23 06:09:57;;;;;;;;;;;17.70;99.90;;;;;;5073170;28;19916;-71
2021/07/23 06:12:42;;;;;;;;;;;17.60;99.90;;;;;;5074687;28;19913;-71
2021/07/23 06:15:08;;;;;;;;;;;17.60;99.90;;;;;;5072961;28;19995;-71
2021/07/23 06:17:52;;;;;;;;;;;17.60;99.90;;;;;;5074954;28;20007;-71
2021/07/23 06:20:18;;;;;;;;;;;17.70;99.90;;;;;;5075239;28;19951;-72
2021/07/23 06:22:43;;;;;;;;;;;17.70;99.90;;;;;;5074633;28;19913;-71
2021/07/23 06:25:09;;;;;;;;;;;17.80;99.90;;;;;;5075253;28;19966;-70
2021/07/23 06:27:34;;;;;;;;;;;17.80;99.90;;;;;;5070071;28;19912;-71
2021/07/23 06:30:00;;;;;;;;;;;17.80;99.90;;;;;;5074765;28;20007;-71
2021/07/23 06:32:28;;;;;;;;;;;17.80;99.90;;;;;;5085308;28;20357;-71
2021/07/23 06:34:54;;;;;;;;;;;17.80;99.90;;;;;;5075194;28;19951;-71
2021/07/23 06:37:23;;;;;;;;;;;17.90;99.90;;;;;;5063074;28;19936;-71
2021/07/23 06:39:49;;;;;;;;;;;18.00;99.90;;;;;;5061106;28;20340;-70
2021/07/23 06:42:15;;;;;;;;;;;18.10;99.90;;;;;;5064273;28;19939;-73
2021/07/23 06:44:40;;;;;;;;;;;18.10;99.90;;;;;;5072751;28;20273;-71
2021/07/23 06:47:06;;;;;;;;;;;18.10;99.90;;;;;;5069432;28;20049;-71
2021/07/23 06:49:31;;;;;;;;;;;18.10;99.90;;;;;;5074540;28;20054;-72
2021/07/23 06:51:57;;;;;;;;;;;18.10;99.90;;;;;;5059205;28;19917;-71
2021/07/23 06:54:22;;;;;;;;;;;18.10;99.90;;;;;;5070011;28;20402;-72
2021/07/23 06:56:50;;;;;;;;;;;18.10;99.90;;;;;;5066978;28;19912;-72
2021/07/23 06:59:15;;;;;;;;;;;18.10;99.90;;;;;;5056774;28;19913;-72
2021/07/23 07:01:41;;;;;;;;;;;18.10;99.90;;;;;;5065495;28;19935;-71
2021/07/23 07:04:06;;;;;;;;;;;18.10;99.90;;;;;;5067194;28;19919;-72
2021/07/23 07:06:32;;;;;;;;;;;18.10;99.90;;;;;;5062296;28;19913;-72
2021/07/23 07:08:57;;;;;;;;;;;18.10;99.90;;;;;;5055033;28;19912;-72
2021/07/23 07:11:22;;;;;;;;;;;18.00;99.90;;;;;;5055271;28;19959;-73
2021/07/23 07:13:48;;;;;;;;;;;18.00;99.90;;;;;;5057669;28;20372;-72
2021/07/23 07:16:13;;;;;;;;;;;18.10;99.90;;;;;;5073363;28;19916;-72
2021/07/23 07:18:41;;;;;;;;;;;18.20;99.90;;;;;;5069622;28;19965;-72
2021/07/23 07:21:06;;;;;;;;;;;18.20;99.90;;;;;;5071630;28;20333;-72
2021/07/23 07:23:32;;;;;;;;;;;18.30;99.90;;;;;;5071536;28;20003;-72
2021/07/23 07:25:57;;;;;;;;;;;18.20;99.90;;;;;;5059837;28;19912;-73
2021/07/23 07:28:23;;;;;;;;;;;18.30;99.90;;;;;;5072012;28;20380;-72
2021/07/23 07:30:49;;;;;;;;;;;18.30;99.90;;;;;;5073615;28;19917;-72
2021/07/23 07:33:14;;;;;;;;;;;18.30;99.90;;;;;;5071268;28;19917;-72
2021/07/23 07:35:44;;;;;;;;;;;18.40;99.90;;;;;;5075679;28;19916;-73
2021/07/23 07:38:09;;;;;;;;;;;18.50;99.90;;;;;;5075728;28;19968;-73
2021/07/23 07:40:36;;;;;;;;;;;18.60;99.90;;;;;;5076876;28;19959;-72
2021/07/23 07:43:02;;;;;;;;;;;18.60;99.90;;;;;;5075622;28;20003;-72
2021/07/23 07:45:27;;;;;;;;;;;18.60;99.90;;;;;;5074330;28;19951;-73
2021/07/23 07:47:53;;;;;;;;;;;18.60;99.90;;;;;;5075970;28;19935;-73
2021/07/23 07:50:19;;;;;;;;;;;18.70;99.90;;;;;;5070065;28;19916;-73
2021/07/23 07:52:44;;;;;;;;;;;18.80;99.90;;;;;;5072449;28;19958;-73
2021/07/23 07:55:10;;;;;;;;;;;18.70;99.90;;;;;;5075838;28;19916;-73
2021/07/23 07:57:36;;;;;;;;;;;18.80;99.90;;;;;;5071986;28;20416;-72
2021/07/23 08:00:01;;;;;;;;;;;18.90;99.90;;;;;;5076851;28;19997;-72
2021/07/23 08:02:27;;;;;;;;;;;18.80;99.90;;;;;;5074642;28;20265;-72
2021/07/23 08:04:52;;;;;;;;;;;18.80;99.90;;;;;;5071193;28;19912;-72
2021/07/23 08:07:21;;;;;;;;;;;18.70;99.90;;;;;;5073839;28;19959;-74
2021/07/23 08:09:48;;;;;;;;;;;18.70;99.90;;;;;;5072410;28;19938;-74
2021/07/23 08:12:13;;;;;;;;;;;18.80;99.90;;;;;;5075637;28;19913;-72
2021/07/23 08:14:39;;;;;;;;;;;18.90;99.90;;;;;;5068593;28;19921;-72
2021/07/23 08:17:04;;;;;;;;;;;18.90;99.90;;;;;;5067473;28;19912;-73
2021/07/23 08:19:30;;;;;;;;;;;18.80;99.90;;;;;;5067206;28;19959;-72
2021/07/23 08:21:55;;;;;;;;;;;18.90;99.90;;;;;;5067247;28;20293;-72
2021/07/23 08:24:21;;;;;;;;;;;19.00;99.90;;;;;;5063139;28;19943;-72
2021/07/23 08:26:46;;;;;;;;;;;18.90;99.90;;;;;;5069881;28;20380;-75
2021/07/23 08:29:12;;;;;;;;;;;18.90;99.90;;;;;;5068959;28;19920;-72
2021/07/23 08:31:37;;;;;;;;;;;18.90;99.90;;;;;;5069488;28;20015;-73
2021/07/23 08:34:03;;;;;;;;;;;19.00;99.90;;;;;;5067599;28;19952;-72
2021/07/23 08:36:28;;;;;;;;;;;19.20;99.90;;;;;;5066495;28;19920;-72
2021/07/23 08:38:54;;;;;;;;;;;19.20;99.90;;;;;;5071339;28;20011;-72
2021/07/23 08:41:19;;;;;;;;;;;19.20;99.90;;;;;;5066777;28;19920;-74
2021/07/23 08:43:46;;;;;;;;;;;19.30;99.90;;;;;;5068014;28;19912;-72
2021/07/23 08:46:12;;;;;;;;;;;19.30;99.90;;;;;;5063241;28;20276;-73
2021/07/23 08:48:38;;;;;;;;;;;19.30;99.90;;;;;;5069005;28;20361;-72
2021/07/23 08:51:04;;;;;;;;;;;19.20;99.90;;;;;;5065122;28;19916;-72
2021/07/23 08:53:29;;;;;;;;;;;19.30;99.90;;;;;;5070005;28;19916;-72
2021/07/23 08:55:55;;;;;;;;;;;19.40;99.90;;;;;;5069130;28;19920;-73
2021/07/23 08:58:20;;;;;;;;;;;19.40;99.90;;;;;;5062841;28;19920;-72
2021/07/23 09:00:46;;;;;;;;;;;19.20;99.90;;;;;;5070965;28;19912;-72
2021/07/23 09:03:11;;;;;;;;;;;19.20;99.90;;;;;;5076537;28;19958;-72
2021/07/23 09:05:37;;;;;;;;;;;19.20;99.90;;;;;;5075543;28;19913;-72
2021/07/23 09:08:11;;;;;;;;;;;19.20;99.90;;;;;;5069503;28;19912;-72
2021/07/23 09:10:37;;;;;;;;;;;19.10;99.90;;;;;;5070622;28;19946;-72
2021/07/23 09:13:03;;;;;;;;;;;19.10;99.90;;;;;;5073194;28;19913;-72
2021/07/23 09:15:30;;;;;;;;;;;19.10;99.90;;;;;;5072901;28;19928;-73
2021/07/23 09:17:56;;;;;;;;;;;19.10;99.90;;;;;;5068491;28;19921;-71
2021/07/23 09:20:22;;;;;;;;;;;19.20;99.90;;;;;;5069681;28;20046;-71
2021/07/23 09:22:52;;;;;;;;;;;19.30;99.90;;;;;;5068784;28;19920;-72
2021/07/23 09:25:38;;;;;;;;;;;19.40;99.90;;;;;;5069093;28;19962;-72
2021/07/23 09:28:22;;;;;;;;;;;19.50;99.90;;;;;;5066252;28;19913;-74
2021/07/23 09:30:47;;;;;;;;;;;19.60;99.90;;;;;;5067402;28;19923;-70
2021/07/23 09:33:13;;;;;;;;;;;19.70;99.90;;;;;;5067968;28;20003;-71
2021/07/23 09:35:59;;;;;;;;;;;19.80;99.90;;;;;;5069915;28;20561;-71
2021/07/23 09:38:25;;;;;;;;;;;19.80;99.90;;;;;;5072243;28;19916;-71
2021/07/23 09:40:52;;;;;;;;;;;19.70;99.90;;;;;;5067249;28;19923;-71
2021/07/23 09:43:30;;;;;;;;;;;19.50;99.90;;;;;;5072343;28;20422;-71
2021/07/23 09:46:16;;;;;;;;;;;19.40;99.90;;;;;;5074638;28;19912;-70
2021/07/23 09:48:45;;;;;;;;;;;19.40;99.90;;;;;;5074180;28;19919;-71
2021/07/23 09:51:10;;;;;;;;;;;19.70;99.90;;;;;;5073092;28;19920;-71
2021/07/23 09:53:36;;;;;;;;;;;19.70;99.90;;;;;;5068163;28;20361;-71
2021/07/23 09:56:05;;;;;;;;;;;19.60;99.90;;;;;;5067602;28;19919;-71
2021/07/23 09:58:30;;;;;;;;;;;19.50;99.90;;;;;;5071932;28;19923;-71
2021/07/23 10:00:56;;;;;;;;;;;19.50;99.90;;;;;;5075156;28;20372;-71
2021/07/23 10:03:28;;;;;;;;;;;19.50;99.90;;;;;;5074356;28;19921;-71
2021/07/23 10:05:57;;;;;;;;;;;19.60;99.90;;;;;;5074681;28;19919;-71
2021/07/23 10:08:25;;;;;;;;;;;19.50;99.90;;;;;;5067067;28;20439;-71
2021/07/23 10:10:52;;;;;;;;;;;19.50;99.90;;;;;;5071919;28;20380;-71
2021/07/23 10:13:27;;;;;;;;;;;19.60;99.90;;;;;;5075431;28;19912;-72
2021/07/23 10:15:53;;;;;;;;;;;19.70;99.90;;;;;;5070658;28;19921;-71
2021/07/23 10:18:19;;;;;;;;;;;19.80;99.90;;;;;;5056521;28;20359;-71
2021/07/23 10:20:46;;;;;;;;;;;19.90;99.90;;;;;;5074051;28;19913;-71
2021/07/23 10:23:14;;;;;;;;;;;19.90;99.90;;;;;;5074670;28;19919;-72
2021/07/23 10:25:41;;;;;;;;;;;19.80;99.90;;;;;;5071650;28;19916;-71
2021/07/23 10:28:07;;;;;;;;;;;19.60;99.90;;;;;;5071385;28;19913;-71
2021/07/23 10:30:33;;;;;;;;;;;19.50;99.90;;;;;;5072424;28;19923;-71
2021/07/23 10:32:59;;;;;;;;;;;19.50;99.90;;;;;;5074258;28;19913;-71
2021/07/23 10:35:24;;;;;;;;;;;19.50;99.90;;;;;;5073841;28;19920;-71
2021/07/23 10:37:53;;;;;;;;;;;19.60;99.90;;;;;;5074328;28;19916;-71
2021/07/23 10:40:20;;;;;;;;;;;19.90;99.90;;;;;;5074986;28;20007;-71
2021/07/23 10:42:46;;;;;;;;;;;20.10;99.90;;;;;;5063460;28;20366;-71
2021/07/23 10:45:15;;;;;;;;;;;20.00;99.90;;;;;;5057277;28;19999;-71
2021/07/23 10:47:44;;;;;;;;;;;20.20;99.90;;;;;;5073652;28;19916;-71
2021/07/23 10:50:33;;;;;;;;;;;20.30;99.90;;;;;;5056158;28;19943;-71
2021/07/23 10:53:18;;;;;;;;;;;20.30;99.90;;;;;;5062541;28;19912;-70
2021/07/23 10:55:44;;;;;;;;;;;20.10;99.90;;;;;;5069294;28;19939;-72
2021/07/23 10:58:09;;;;;;;;;;;20.20;99.90;;;;;;5071124;28;19913;-71
2021/07/23 11:00:45;;;;;;;;;;;20.30;99.90;;;;;;5063803;28;19912;-71
2021/07/23 11:03:30;;;;;;;;;;;20.30;99.90;;;;;;5067688;28;19923;-71
2021/07/23 11:05:56;;;;;;;;;;;20.30;99.90;;;;;;5064598;28;19917;-74
2021/07/23 11:08:21;;;;;;;;;;;20.30;99.90;;;;;;5073745;28;19962;-71
2021/07/23 11:10:52;;;;;;;;;;;20.50;99.90;;;;;;5070958;28;19916;-70
2021/07/23 11:13:17;;;;;;;;;;;20.60;99.90;;;;;;5072922;28;19912;-70
2021/07/23 11:15:42;;;;;;;;;;;20.70;99.90;;;;;;5073171;28;20345;-70
2021/07/23 11:18:13;;;;;;;;;;;20.70;99.90;;;;;;5071512;28;19916;-71
2021/07/23 11:20:39;;;;;;;;;;;20.90;99.90;;;;;;5054877;28;20366;-71
2021/07/23 11:23:05;;;;;;;;;;;21.00;99.90;;;;;;5066022;28;19912;-70
2021/07/23 11:25:31;;;;;;;;;;;21.00;99.90;;;;;;5067043;28;19916;-71
2021/07/23 11:28:01;;;;;;;;;;;20.90;99.90;;;;;;5067291;28;20021;-71
2021/07/23 11:30:30;;;;;;;;;;;20.80;99.90;;;;;;5062335;28;19920;-70
2021/07/23 11:32:57;;;;;;;;;;;21.00;99.90;;;;;;5068281;28;20013;-73
2021/07/23 11:35:23;;;;;;;;;;;21.00;99.90;;;;;;5067516;28;20407;-71
2021/07/23 11:37:49;;;;;;;;;;;21.10;99.90;;;;;;5066739;28;20368;-70
2021/07/23 11:40:16;;;;;;;;;;;21.10;99.90;;;;;;5065794;28;19999;-71
2021/07/23 11:42:44;;;;;;;;;;;21.10;99.90;;;;;;5068376;28;20054;-70
2021/07/23 11:45:13;;;;;;;;;;;21.20;99.90;;;;;;5068908;28;19924;-70
2021/07/23 11:47:45;;;;;;;;;;;21.10;99.90;;;;;;5070187;28;20003;-70
2021/07/23 11:50:18;;;;;;;;;;;21.10;99.90;;;;;;5063172;28;19916;-71
2021/07/23 11:52:45;;;;;;;;;;;21.20;99.90;;;;;;5070346;28;20280;-71
2021/07/23 11:55:11;;;;;;;;;;;21.60;99.90;;;;;;5070527;28;19916;-71
2021/07/23 11:57:38;;;;;;;;;;;21.80;99.90;;;;;;5053929;28;19913;-70
2021/07/23 12:00:23;;;;;;;;;;;21.70;99.90;;;;;;5060600;28;19912;-71
2021/07/23 12:02:50;;;;;;;;;;;21.60;99.90;;;;;;5063026;28;20380;-70
2021/07/23 12:05:16;;;;;;;;;;;21.80;99.90;;;;;;5060623;28;20319;-71
2021/07/23 12:08:00;;;;;;;;;;;21.60;99.90;;;;;;5068256;28;20035;-71
2021/07/23 12:10:26;;;;;;;;;;;21.50;99.90;;;;;;5072444;28;20295;-71
2021/07/23 12:12:52;;;;;;;;;;;21.40;99.90;;;;;;5064352;28;19934;-71
2021/07/23 12:15:19;;;;;;;;;;;21.60;99.90;;;;;;5072756;28;19916;-70
2021/07/23 12:17:46;;;;;;;;;;;21.40;99.90;;;;;;5071686;28;19920;-70
2021/07/23 12:20:12;;;;;;;;;;;21.40;99.90;;;;;;5071266;28;19947;-71
2021/07/23 12:22:37;;;;;;;;;;;21.10;99.90;;;;;;5070763;28;19982;-70
2021/07/23 12:25:19;;;;;;;;;;;21.00;99.90;;;;;;5059250;28;19913;-70
2021/07/23 12:27:44;;;;;;;;;;;20.90;99.90;;;;;;5052633;28;20330;-71
2021/07/23 12:30:11;;;;;;;;;;;21.00;99.90;;;;;;5056966;28;19926;-71
2021/07/23 12:32:36;;;;;;;;;;;21.10;99.90;;;;;;5070522;28;19965;-71
2021/07/23 12:35:02;;;;;;;;;;;21.10;99.90;;;;;;5063251;28;20018;-70
2021/07/23 12:37:28;;;;;;;;;;;21.00;99.90;;;;;;5076095;28;19920;-71
2021/07/23 12:40:06;;;;;;;;;;;21.30;99.90;;;;;;5062639;28;19919;-71
2021/07/23 12:42:31;;;;;;;;;;;21.50;99.90;;;;;;5076685;28;19912;-70
2021/07/23 12:44:57;;;;;;;;;;;21.40;99.90;;;;;;5068690;28;20046;-71
2021/07/23 12:47:23;;;;;;;;;;;21.50;99.90;;;;;;5065447;28;19928;-70
2021/07/23 12:49:50;;;;;;;;;;;21.60;99.90;;;;;;5068344;28;19920;-71
2021/07/23 12:52:16;;;;;;;;;;;21.70;99.90;;;;;;5073865;28;19967;-71
2021/07/23 12:54:42;;;;;;;;;;;21.70;99.90;;;;;;5065399;28;19995;-72
2021/07/23 12:57:14;;;;;;;;;;;21.50;99.90;;;;;;5066595;28;19951;-72
2021/07/23 12:59:40;;;;;;;;;;;21.40;99.90;;;;;;5074124;28;20365;-72
2021/07/23 13:02:06;;;;;;;;;;;21.20;99.90;;;;;;5073224;28;19958;-74
2021/07/23 13:04:31;;;;;;;;;;;21.20;99.90;;;;;;5070201;28;20022;-72
2021/07/23 13:06:57;;;;;;;;;;;21.20;99.90;;;;;;5064356;28;19912;-72
2021/07/23 13:09:22;;;;;;;;;;;21.40;99.90;;;;;;5073334;28;20352;-72
2021/07/23 13:11:49;;;;;;;;;;;21.90;99.90;;;;;;5056807;28;19916;-72
2021/07/23 13:14:16;;;;;;;;;;;22.50;99.90;;;;;;5071308;28;19912;-72
2021/07/23 13:16:42;;;;;;;;;;;22.90;99.90;;;;;;5073239;28;19982;-73
2021/07/23 13:19:08;;;;;;;;;;;23.00;99.90;;;;;;5069833;28;19963;-72
2021/07/23 13:21:33;;;;;;;;;;;23.30;99.90;;;;;;5076309;28;19913;-72
2021/07/23 13:24:00;;;;;;;;;;;23.50;99.90;;;;;;5076525;28;20372;-73
2021/07/23 13:26:26;;;;;;;;;;;23.70;99.90;;;;;;5070325;28;19913;-72
2021/07/23 13:28:52;;;;;;;;;;;23.80;99.90;;;;;;5071257;28;19958;-72
2021/07/23 13:31:17;;;;;;;;;;;23.80;99.90;;;;;;5062556;28;19916;-73
2021/07/23 13:33:43;;;;;;;;;;;23.50;99.90;;;;;;5068476;28;19913;-72
2021/07/23 13:36:13;;;;;;;;;;;23.30;99.90;;;;;;5064251;28;19919;-72
2021/07/23 13:38:41;;;;;;;;;;;23.10;99.90;;;;;;5071028;28;19913;-72
2021/07/23 13:41:09;;;;;;;;;;;22.70;99.90;;;;;;5071669;28;19920;-72
2021/07/23 13:43:35;;;;;;;;;;;22.60;99.90;;;;;;5063437;28;20007;-72
2021/07/23 13:46:01;;;;;;;;;;;22.60;99.90;;;;;;5060944;28;19964;-72
2021/07/23 13:48:27;;;;;;;;;;;22.60;99.90;;;;;;5065548;28;19912;-72
2021/07/23 13:50:52;;;;;;;;;;;22.70;99.90;;;;;;5073022;28;20261;-73
2021/07/23 13:53:18;;;;;;;;;;;22.90;99.90;;;;;;5074055;28;19960;-72
2021/07/23 13:55:43;;;;;;;;;;;22.70;99.90;;;;;;5064153;28;19966;-72
2021/07/23 13:58:09;;;;;;;;;;;22.30;99.90;;;;;;5075212;28;19912;-73
2021/07/23 14:00:34;;;;;;;;;;;22.40;99.90;;;;;;5070795;28;20376;-72
2021/07/23 14:03:00;;;;;;;;;;;22.40;99.90;;;;;;5075200;28;19916;-72
2021/07/23 14:05:26;;;;;;;;;;;22.40;99.90;;;;;;5075227;28;20376;-73
2021/07/23 14:07:52;;;;;;;;;;;22.20;99.90;;;;;;5074515;28;20269;-73
2021/07/23 14:10:18;;;;;;;;;;;22.30;99.90;;;;;;5063929;28;20025;-72
2021/07/23 14:12:43;;;;;;;;;;;22.60;99.90;;;;;;5074942;28;19955;-72
2021/07/23 14:15:09;;;;;;;;;;;22.90;99.90;;;;;;5072472;28;19916;-72